createdAt,value
2018-01-16T00:00:25.048Z,4.80
2018-01-16T00:02:53.060Z,4.80
2018-01-16T00:05:21.051Z,4.80
2018-01-16T00:07:49.065Z,4.80
2018-01-16T00:10:17.059Z,4.80
2018-01-16T00:12:45.052Z,4.80
2018-01-16T00:15:13.051Z,4.80
2018-01-16T00:17:41.814Z,4.80
2018-01-16T00:20:09.801Z,4.70
2018-01-16T00:22:41.818Z,4.80
2018-01-16T00:25:10.591Z,4.80
2018-01-16T00:27:38.584Z,4.80
2018-01-16T00:30:06.635Z,4.80
2018-01-16T00:32:35.355Z,4.80
2018-01-16T00:35:03.349Z,4.80
2018-01-16T00:37:31.346Z,4.90
2018-01-16T00:40:00.096Z,4.90
2018-01-16T00:42:28.079Z,4.90
2018-01-16T00:44:56.087Z,4.90
2018-01-16T00:47:24.084Z,4.90
2018-01-16T00:49:52.848Z,5.00
2018-01-16T00:52:20.843Z,4.90
2018-01-16T00:54:48.840Z,5.00
2018-01-16T00:57:16.827Z,5.00
2018-01-16T00:59:44.831Z,5.10
2018-01-16T01:02:13.606Z,5.00
2018-01-16T01:04:41.587Z,5.00
2018-01-16T01:07:09.621Z,5.00
2018-01-16T01:09:38.130Z,5.00
2018-01-16T01:12:06.107Z,5.00
2018-01-16T01:14:34.114Z,5.00
2018-01-16T01:17:02.120Z,5.10
2018-01-16T01:19:30.104Z,5.10
2018-01-16T01:21:58.096Z,5.10
2018-01-16T01:24:26.860Z,5.10
2018-01-16T01:26:54.844Z,5.10
2018-01-16T01:29:22.835Z,5.20
2018-01-16T01:31:50.842Z,5.10
2018-01-16T01:34:19.596Z,5.20
2018-01-16T01:36:47.584Z,5.10
2018-01-16T01:39:15.579Z,5.20
2018-01-16T01:41:43.563Z,5.20
2018-01-16T01:44:11.568Z,5.20
2018-01-16T01:46:40.871Z,5.10
2018-01-16T01:49:12.419Z,5.10
2018-01-16T01:51:40.424Z,5.20
2018-01-16T01:54:10.858Z,5.20
2018-01-16T01:56:38.920Z,5.20
2018-01-16T01:59:06.953Z,5.20
2018-01-16T02:01:35.764Z,5.20
2018-01-16T02:04:03.799Z,5.20
2018-01-16T02:06:31.846Z,5.20
2018-01-16T02:09:00.755Z,5.20
2018-01-16T02:11:28.804Z,5.20
2018-01-16T02:13:57.624Z,5.20
2018-01-16T02:16:26.421Z,5.20
2018-01-16T02:18:55.232Z,5.20
2018-01-16T02:21:23.280Z,5.20
2018-01-16T02:23:51.332Z,5.20
2018-01-16T02:26:19.369Z,5.20
2018-01-16T02:28:48.168Z,5.20
2018-01-16T02:31:16.999Z,5.20
2018-01-16T02:33:45.037Z,5.10
2018-01-16T02:36:13.068Z,5.20
2018-01-16T02:38:41.113Z,5.20
2018-01-16T02:41:09.924Z,5.20
2018-01-16T02:43:38.741Z,5.20
2018-01-16T02:46:06.789Z,5.20
2018-01-16T02:48:34.817Z,5.20
2018-01-16T02:51:02.864Z,5.30
2018-01-16T02:53:31.676Z,5.30
2018-01-16T02:56:00.480Z,5.30
2018-01-16T02:58:29.287Z,5.30
2018-01-16T03:00:58.081Z,5.10
2018-01-16T03:03:26.892Z,5.30
2018-01-16T03:29:38.901Z,5.30
2018-01-16T03:32:06.904Z,5.20
2018-01-16T03:34:34.896Z,5.20
2018-01-16T03:37:02.895Z,5.20
2018-01-16T03:39:30.892Z,5.20
2018-01-16T03:41:59.639Z,5.10
2018-01-16T03:44:27.641Z,5.10
2018-01-16T03:46:55.640Z,5.10
2018-01-16T03:49:23.628Z,5.10
2018-01-16T03:51:51.619Z,5.10
2018-01-16T03:54:20.395Z,5.10
2018-01-16T03:56:48.381Z,5.00
2018-01-16T03:59:16.388Z,5.10
2018-01-16T04:01:45.155Z,5.10
2018-01-16T04:04:13.167Z,5.00
2018-01-16T04:06:41.149Z,5.00
2018-01-16T04:09:09.928Z,5.10
2018-01-16T04:11:37.919Z,5.10
2018-01-16T04:14:05.912Z,5.10
2018-01-16T04:16:34.688Z,5.10
2018-01-16T04:19:02.675Z,5.10
2018-01-16T04:21:32.188Z,5.10
2018-01-16T04:24:00.188Z,5.10
2018-01-16T04:26:28.169Z,5.10
2018-01-16T04:28:56.168Z,5.20
2018-01-16T04:31:24.936Z,5.20
2018-01-16T04:33:52.928Z,5.10
2018-01-16T04:36:20.927Z,5.20
2018-01-16T04:38:49.697Z,5.20
2018-01-16T04:41:17.690Z,5.10
2018-01-16T04:43:45.685Z,5.20
2018-01-16T04:46:13.688Z,5.20
2018-01-16T04:48:42.449Z,5.30
2018-01-16T04:51:10.447Z,5.20
2018-01-16T04:53:38.464Z,5.30
2018-01-16T04:56:07.252Z,5.30
2018-01-16T04:58:36.016Z,5.30
2018-01-16T05:01:04.024Z,5.30
2018-01-16T05:03:32.815Z,5.40
2018-01-16T05:06:00.785Z,5.30
2018-01-16T05:08:28.812Z,5.40
2018-01-16T05:10:56.804Z,5.40
2018-01-16T05:13:24.808Z,5.40
2018-01-16T05:15:52.812Z,5.50
2018-01-16T05:18:20.800Z,5.50
2018-01-16T05:20:48.826Z,5.50
2018-01-16T05:23:16.819Z,5.50
2018-01-16T05:25:44.799Z,5.60
2018-01-16T05:28:12.808Z,5.50
2018-01-16T05:30:40.811Z,5.60
2018-01-16T05:33:08.796Z,5.60
2018-01-16T05:35:36.800Z,5.70
2018-01-16T05:38:05.568Z,5.70
2018-01-16T05:40:33.560Z,5.60
2018-01-16T05:43:01.556Z,5.70
2018-01-16T05:45:29.557Z,5.70
2018-01-16T05:47:58.316Z,5.60
2018-01-16T05:50:26.320Z,5.60
2018-01-16T05:52:54.316Z,5.60
2018-01-16T05:55:23.076Z,5.60
2018-01-16T05:57:51.080Z,5.60
2018-01-16T06:00:19.107Z,5.60
2018-01-16T06:02:47.836Z,5.70
2018-01-16T06:05:15.836Z,5.60
2018-01-16T06:07:43.847Z,5.60
2018-01-16T06:10:12.610Z,5.60
2018-01-16T06:12:40.616Z,5.60
2018-01-16T06:15:08.616Z,5.60
2018-01-16T06:17:37.673Z,5.60
2018-01-16T06:20:05.674Z,5.60
2018-01-16T06:22:33.660Z,5.60
2018-01-16T06:25:01.652Z,5.70
2018-01-16T06:27:29.668Z,5.60
2018-01-16T06:29:57.672Z,5.70
2018-01-16T06:32:25.656Z,5.70
2018-01-16T06:34:53.663Z,5.70
2018-01-16T06:37:21.664Z,5.70
2018-01-16T06:39:49.649Z,5.70
2018-01-16T06:42:17.652Z,5.80
2018-01-16T06:44:46.426Z,5.80
2018-01-16T06:47:14.443Z,5.80
2018-01-16T06:49:42.448Z,5.80
2018-01-16T06:52:10.457Z,5.90
2018-01-16T06:54:38.438Z,6.00
2018-01-16T06:57:06.439Z,5.90
2018-01-16T06:59:34.432Z,5.90
2018-01-16T07:02:03.188Z,5.90
2018-01-16T07:04:31.201Z,5.90
2018-01-16T07:06:59.194Z,5.90
2018-01-16T07:09:27.175Z,5.90
2018-01-16T07:11:55.188Z,5.90
2018-01-16T07:14:23.193Z,5.90
2018-01-16T07:16:51.194Z,5.90
2018-01-16T07:19:20.004Z,6.00
2018-01-16T07:21:48.008Z,6.00
2018-01-16T07:24:16.004Z,6.10
2018-01-16T07:26:44.792Z,6.10
2018-01-16T07:29:12.788Z,6.00
2018-01-16T07:31:41.547Z,6.00
2018-01-16T07:34:10.312Z,6.00
2018-01-16T07:36:38.308Z,6.00
2018-01-16T07:39:06.331Z,6.00
2018-01-16T07:41:34.323Z,6.00
2018-01-16T07:44:02.325Z,6.00
2018-01-16T07:46:31.076Z,6.00
2018-01-16T07:48:59.072Z,5.90
2018-01-16T07:51:27.078Z,6.00
2018-01-16T07:53:55.863Z,5.90
2018-01-16T07:56:23.844Z,5.90
2018-01-16T07:58:51.845Z,6.00
2018-01-16T08:01:20.592Z,6.00
2018-01-16T08:03:48.598Z,5.90
2018-01-16T08:06:16.596Z,5.90
2018-01-16T08:08:44.604Z,5.80
2018-01-16T08:11:12.611Z,5.80
2018-01-16T08:13:40.603Z,5.70
2018-01-16T08:16:08.596Z,5.70
2018-01-16T08:18:36.595Z,5.70
2018-01-16T08:21:04.600Z,5.60
2018-01-16T08:23:33.347Z,5.70
2018-01-16T08:26:01.348Z,5.60
2018-01-16T08:28:29.366Z,5.70
2018-01-16T08:30:57.344Z,5.60
2018-01-16T08:33:25.344Z,5.60
2018-01-16T08:35:54.101Z,5.60
2018-01-16T08:38:22.088Z,5.60
2018-01-16T08:40:50.097Z,5.70
2018-01-16T08:43:18.100Z,5.70
2018-01-16T08:45:46.855Z,5.70
2018-01-16T08:48:14.856Z,5.70
2018-01-16T08:50:42.865Z,5.70
2018-01-16T08:53:11.616Z,5.80
2018-01-16T08:55:39.636Z,5.70
2018-01-16T08:58:09.307Z,5.80
2018-01-16T09:00:37.287Z,5.70
2018-01-16T09:03:05.295Z,5.80
2018-01-16T09:05:33.302Z,5.80
2018-01-16T09:08:02.067Z,5.90
2018-01-16T09:10:30.057Z,5.80
2018-01-16T09:12:58.049Z,5.90
2018-01-16T09:15:26.077Z,6.00
2018-01-16T09:17:54.039Z,6.00
2018-01-16T09:20:22.816Z,6.10
2018-01-16T09:22:50.800Z,6.10
2018-01-16T09:25:18.795Z,6.10
2018-01-16T09:27:47.564Z,6.10
2018-01-16T09:30:15.553Z,6.10
2018-01-16T09:32:43.543Z,6.20
2018-01-16T09:35:11.556Z,6.30
2018-01-16T09:37:40.304Z,6.50
2018-01-16T09:40:08.312Z,6.50
2018-01-16T09:42:36.312Z,6.60
2018-01-16T09:45:05.147Z,6.80
2018-01-16T09:47:33.896Z,6.90
2018-01-16T09:50:01.916Z,6.90
2018-01-16T09:52:29.891Z,7.00
2018-01-16T09:54:57.896Z,7.20
2018-01-16T09:57:25.892Z,7.20
2018-01-16T09:59:53.884Z,7.30
2018-01-16T10:02:21.916Z,7.30
2018-01-16T10:04:49.897Z,7.30
2018-01-16T10:07:18.657Z,7.40
2018-01-16T10:09:46.652Z,7.30
2018-01-16T10:12:14.679Z,7.40
2018-01-16T10:14:43.437Z,7.40
2018-01-16T10:17:11.436Z,7.30
2018-01-16T10:19:39.438Z,7.40
2018-01-16T10:22:08.197Z,7.50
2018-01-16T10:24:36.191Z,7.40
2018-01-16T10:27:04.204Z,7.50
2018-01-16T10:29:32.228Z,7.50
2018-01-16T10:32:00.228Z,7.60
2018-01-16T10:34:28.224Z,7.50
2018-01-16T10:36:56.213Z,7.50
2018-01-16T10:39:24.216Z,7.40
2018-01-16T10:41:52.991Z,7.40
2018-01-16T10:44:20.971Z,7.40
2018-01-16T10:46:48.980Z,7.40
2018-01-16T10:49:17.759Z,7.40
2018-01-16T10:51:45.740Z,7.30
2018-01-16T10:54:13.754Z,7.30
2018-01-16T10:56:42.530Z,7.20
2018-01-16T10:59:10.519Z,7.20
2018-01-16T11:01:38.868Z,7.10
2018-01-16T11:04:06.856Z,7.00
2018-01-16T11:06:34.836Z,7.00
2018-01-16T11:09:02.842Z,7.00
2018-01-16T11:11:31.591Z,7.00
2018-01-16T11:13:59.568Z,7.10
2018-01-16T11:16:27.576Z,7.10
2018-01-16T11:18:55.583Z,7.00
2018-01-16T11:21:23.564Z,7.10
2018-01-16T11:23:51.564Z,7.10
2018-01-16T11:26:20.337Z,7.20
2018-01-16T11:28:48.333Z,7.20
2018-01-16T11:31:16.340Z,7.30
2018-01-16T11:33:45.113Z,7.60
2018-01-16T11:36:13.102Z,7.50
2018-01-16T11:38:41.104Z,7.50
2018-01-16T11:41:09.876Z,7.60
2018-01-16T11:43:37.864Z,7.60
2018-01-16T11:46:05.888Z,7.60
2018-01-16T11:48:33.885Z,7.70
2018-01-16T11:51:01.882Z,7.60
2018-01-16T11:53:29.884Z,7.60
2018-01-16T11:55:57.871Z,7.50
2018-01-16T11:58:25.859Z,7.60
2018-01-16T12:00:53.857Z,7.50
2018-01-16T12:03:22.634Z,7.30
2018-01-16T12:05:50.622Z,7.30
2018-01-16T12:08:18.627Z,7.20
2018-01-16T12:10:47.396Z,7.20
2018-01-16T12:13:15.398Z,7.10
2018-01-16T12:15:43.405Z,7.10
2018-01-16T12:18:12.250Z,6.80
2018-01-16T12:20:40.244Z,6.70
2018-01-16T12:23:08.237Z,6.80
2018-01-16T12:25:36.236Z,6.70
2018-01-16T12:28:04.996Z,5.50
2018-01-16T12:30:32.995Z,5.40
2018-01-16T12:33:00.984Z,4.80
2018-01-16T12:35:28.980Z,4.30
2018-01-16T12:37:56.967Z,4.10
2018-01-16T12:40:25.736Z,4.10
2018-01-16T12:42:53.711Z,4.00
2018-01-16T12:45:21.724Z,4.10
2018-01-16T12:47:49.719Z,4.10
2018-01-16T12:50:19.485Z,4.20
2018-01-16T12:52:47.480Z,4.20
2018-01-16T12:55:15.492Z,4.30
2018-01-16T12:57:43.481Z,4.30
2018-01-16T13:00:11.499Z,4.20
2018-01-16T13:02:39.504Z,4.20
2018-01-16T13:05:07.489Z,4.20
2018-01-16T13:07:35.492Z,4.10
2018-01-16T13:10:03.493Z,4.20
2018-01-16T13:12:31.492Z,4.20
2018-01-16T13:15:00.248Z,4.30
2018-01-16T13:17:28.256Z,4.20
2018-01-16T13:19:56.239Z,4.40
2018-01-16T13:22:24.243Z,4.50
2018-01-16T13:24:53.088Z,4.60
2018-01-16T13:27:21.093Z,4.60
2018-01-16T13:29:49.128Z,4.70
2018-01-16T13:32:17.132Z,4.70
2018-01-16T13:34:45.222Z,4.80
2018-01-16T13:37:13.293Z,4.90
2018-01-16T13:39:41.259Z,4.90
2018-01-16T13:42:09.248Z,4.90
2018-01-16T13:44:37.252Z,4.90
2018-01-16T13:47:05.259Z,4.90
2018-01-16T13:49:33.248Z,5.00
2018-01-16T13:52:01.253Z,5.00
2018-01-16T13:54:30.021Z,5.30
2018-01-16T13:56:58.004Z,5.30
2018-01-16T13:59:26.012Z,5.40
2018-01-16T14:01:54.113Z,5.50
2018-01-16T14:04:22.105Z,5.50
2018-01-16T14:06:50.104Z,5.40
2018-01-16T14:09:18.107Z,5.50
2018-01-16T14:11:46.096Z,5.50
2018-01-16T14:14:14.108Z,5.50
2018-01-16T14:16:42.896Z,5.50
2018-01-16T14:19:10.888Z,5.40
2018-01-16T14:21:39.658Z,5.50
2018-01-16T14:24:07.660Z,5.50
2018-01-16T14:26:35.644Z,5.50
2018-01-16T14:29:05.173Z,5.50
2018-01-16T14:31:33.168Z,5.50
2018-01-16T14:34:01.965Z,5.60
2018-01-16T14:36:29.938Z,5.60
2018-01-16T14:38:57.932Z,5.60
2018-01-16T14:41:26.684Z,5.60
2018-01-16T14:43:54.689Z,5.60
2018-01-16T14:46:22.691Z,5.50
2018-01-16T14:48:51.439Z,5.40
2018-01-16T14:51:19.449Z,5.40
2018-01-16T14:53:47.452Z,5.50
2018-01-16T14:56:15.443Z,5.50
2018-01-16T14:58:44.216Z,5.50
2018-01-16T15:01:12.220Z,5.50
2018-01-16T15:03:40.212Z,5.50
2018-01-16T15:06:08.976Z,5.50
2018-01-16T15:08:37.026Z,5.50
2018-01-16T15:11:04.956Z,5.50
2018-01-16T15:13:34.459Z,5.50
2018-01-16T15:16:02.464Z,5.50
2018-01-16T15:18:31.216Z,5.60
2018-01-16T15:20:59.219Z,5.50
2018-01-16T15:23:27.215Z,5.60
2018-01-16T15:25:55.207Z,5.50
2018-01-16T15:28:23.208Z,5.50
2018-01-16T15:30:51.980Z,5.50
2018-01-16T15:33:19.968Z,5.50
2018-01-16T15:35:47.959Z,5.50
2018-01-16T15:38:15.976Z,5.50
2018-01-16T15:40:43.971Z,5.50
2018-01-16T15:43:11.967Z,5.50
2018-01-16T15:45:39.968Z,5.50
2018-01-16T15:48:07.957Z,5.50
2018-01-16T15:50:35.952Z,5.50
2018-01-16T15:53:03.948Z,5.60
2018-01-16T15:55:32.696Z,5.50
2018-01-16T15:58:00.980Z,5.50
2018-01-16T16:00:28.983Z,5.60
2018-01-16T16:02:56.975Z,5.50
2018-01-16T16:05:24.976Z,5.60
2018-01-16T16:07:53.752Z,5.50
2018-01-16T16:10:21.740Z,5.50
2018-01-16T16:12:49.744Z,5.50
2018-01-16T16:15:18.512Z,5.40
2018-01-16T16:17:46.504Z,5.30
2018-01-16T16:20:14.519Z,5.30
2018-01-16T16:22:43.305Z,5.30
2018-01-16T16:25:11.296Z,5.30
2018-01-16T16:27:40.084Z,5.30
2018-01-16T16:30:08.102Z,5.30
2018-01-16T16:32:36.108Z,5.40
2018-01-16T16:35:04.100Z,5.40
2018-01-16T16:37:32.868Z,5.60
2018-01-16T16:40:00.860Z,5.50
2018-01-16T16:42:28.860Z,5.60
2018-01-16T16:44:56.868Z,5.60
2018-01-16T16:47:24.854Z,5.60
2018-01-16T16:49:52.857Z,5.70
2018-01-16T16:52:21.624Z,5.70
2018-01-16T16:54:49.616Z,5.60
2018-01-16T16:57:17.628Z,5.70
2018-01-16T16:59:45.637Z,5.70
2018-01-16T17:02:13.638Z,5.70
2018-01-16T17:04:41.640Z,5.60
2018-01-16T17:07:09.640Z,5.60
2018-01-16T17:09:37.627Z,5.60
2018-01-16T17:12:05.628Z,5.50
2018-01-16T17:14:34.397Z,5.40
2018-01-16T17:17:02.389Z,5.40
2018-01-16T17:19:30.396Z,5.30
2018-01-16T17:21:59.164Z,5.30
2018-01-16T17:24:27.151Z,5.30
2018-01-16T17:26:55.164Z,5.30
2018-01-16T17:29:23.919Z,5.20
2018-01-16T17:31:51.909Z,5.10
2018-01-16T17:34:19.908Z,5.20
2018-01-16T17:36:47.932Z,5.20
2018-01-16T17:39:16.413Z,5.20
2018-01-16T17:41:44.580Z,5.20
2018-01-16T17:44:13.365Z,5.20
2018-01-16T17:46:41.352Z,5.20
2018-01-16T17:49:09.362Z,5.10
2018-01-16T17:51:38.422Z,5.20
2018-01-16T17:54:06.420Z,5.10
2018-01-16T17:56:34.416Z,5.30
2018-01-16T17:59:03.792Z,5.20
2018-01-16T18:01:33.901Z,5.20
2018-01-16T18:04:01.896Z,5.30
2018-01-16T18:06:29.879Z,5.30
2018-01-16T18:08:57.988Z,5.30
2018-01-16T18:11:25.978Z,5.30
2018-01-16T18:13:53.965Z,5.40
2018-01-16T18:16:21.969Z,5.40
2018-01-16T18:18:50.765Z,5.40
2018-01-16T18:21:19.535Z,5.40
2018-01-16T18:23:47.532Z,5.40
2018-01-16T18:26:15.586Z,5.50
2018-01-16T18:28:43.659Z,5.50
2018-01-16T18:31:12.401Z,5.50
2018-01-16T18:33:40.404Z,5.40
2018-01-16T18:36:09.160Z,5.50
2018-01-16T18:38:37.164Z,5.40
2018-01-16T18:41:06.004Z,5.40
2018-01-16T18:43:33.991Z,5.50
2018-01-16T18:46:02.805Z,5.40
2018-01-16T18:48:30.801Z,5.40
2018-01-16T18:50:58.803Z,5.40
2018-01-16T18:53:26.816Z,5.50
2018-01-16T18:55:55.582Z,5.50
2018-01-16T18:58:23.641Z,5.40
2018-01-16T19:00:51.641Z,5.50
2018-01-16T19:03:19.640Z,5.40
2018-01-16T19:05:47.635Z,5.50
2018-01-16T19:08:15.679Z,5.40
2018-01-16T19:10:43.687Z,5.40
2018-01-16T19:13:11.689Z,5.50
2018-01-16T19:15:39.977Z,5.40
2018-01-16T19:18:08.111Z,5.50
2018-01-16T19:20:36.105Z,5.50
2018-01-16T19:23:04.099Z,5.50
2018-01-16T19:25:32.104Z,5.50
2018-01-16T19:28:00.096Z,5.40
2018-01-16T19:30:28.867Z,5.30
2018-01-16T19:32:56.872Z,5.30
2018-01-16T19:35:24.860Z,5.40
2018-01-16T19:37:52.876Z,5.40
2018-01-16T19:40:20.879Z,5.40
2018-01-16T19:42:48.956Z,5.30
2018-01-16T19:45:16.952Z,5.30
2018-01-16T19:47:44.976Z,5.30
2018-01-16T19:50:12.976Z,5.40
2018-01-16T19:52:41.773Z,5.40
2018-01-16T19:55:10.649Z,5.30
2018-01-16T19:57:38.633Z,5.40
2018-01-16T20:00:06.655Z,5.30
2018-01-16T20:02:34.673Z,5.30
2018-01-16T20:05:02.704Z,5.40
2018-01-16T20:07:31.472Z,5.40
2018-01-16T20:09:59.479Z,5.30
2018-01-16T20:12:27.468Z,5.40
2018-01-16T20:14:56.236Z,5.40
2018-01-16T20:17:24.228Z,5.30
2018-01-16T20:19:52.218Z,5.30
2018-01-16T20:22:20.233Z,5.30
2018-01-16T20:24:48.220Z,5.30
2018-01-16T20:27:16.209Z,5.30
2018-01-16T20:29:44.236Z,5.30
2018-01-16T20:32:12.276Z,5.30
2018-01-16T20:34:40.294Z,5.30
2018-01-16T20:37:08.280Z,5.30
2018-01-16T20:39:36.295Z,5.30
2018-01-16T20:42:05.059Z,5.30
2018-01-16T20:44:33.064Z,5.30
2018-01-16T20:47:01.136Z,5.30
2018-01-16T20:49:29.925Z,5.20
2018-01-16T20:51:57.953Z,5.30
2018-01-16T20:54:26.728Z,5.20
2018-01-16T20:56:54.721Z,5.10
2018-01-16T20:59:22.730Z,5.10
2018-01-16T21:01:50.728Z,5.20
2018-01-16T21:04:18.729Z,5.20
2018-01-16T21:06:46.736Z,5.10
2018-01-16T21:09:14.763Z,5.00
2018-01-16T21:11:42.763Z,5.10
2018-01-16T21:14:10.795Z,5.10
2018-01-16T21:16:38.787Z,5.00
2018-01-16T21:19:07.546Z,4.90
2018-01-16T21:21:35.556Z,4.90
2018-01-16T21:24:03.564Z,4.90
2018-01-16T21:26:32.335Z,4.90
2018-01-16T21:29:00.328Z,4.80
2018-01-16T21:31:28.336Z,4.80
2018-01-16T21:33:56.332Z,4.80
2018-01-16T21:36:24.336Z,4.80
2018-01-16T21:38:52.340Z,4.80
2018-01-16T21:41:20.328Z,4.70
2018-01-16T21:43:49.167Z,4.70
2018-01-16T21:46:17.233Z,4.70
2018-01-16T21:48:46.019Z,4.60
2018-01-16T21:51:14.020Z,4.50
2018-01-16T21:53:42.836Z,4.50
2018-01-16T21:56:10.821Z,4.40
2018-01-16T21:58:38.815Z,4.50
2018-01-16T22:01:06.828Z,4.50
2018-01-16T22:03:35.779Z,4.40
2018-01-16T22:06:03.764Z,4.40
2018-01-16T22:08:32.528Z,4.30
2018-01-16T22:11:00.513Z,4.30
2018-01-16T22:13:28.536Z,4.30
2018-01-16T22:15:57.305Z,4.20
2018-01-16T22:18:25.301Z,4.20
2018-01-16T22:20:54.063Z,4.10
2018-01-16T22:23:22.404Z,4.10
2018-01-16T22:25:51.148Z,4.10
2018-01-16T22:28:19.156Z,4.00
2018-01-16T22:30:47.167Z,4.10
2018-01-16T22:33:15.946Z,4.10
2018-01-16T22:35:43.949Z,4.00
2018-01-16T22:38:12.723Z,4.00
2018-01-16T22:40:40.708Z,4.00
2018-01-16T22:43:09.496Z,4.10
2018-01-16T22:45:37.510Z,4.00
2018-01-16T22:48:06.277Z,4.00
2018-01-16T22:50:34.276Z,4.00
2018-01-16T22:53:02.280Z,4.10
2018-01-16T22:55:31.034Z,4.00
2018-01-16T22:57:59.058Z,4.00
2018-01-16T23:00:27.058Z,4.10
2018-01-16T23:02:55.800Z,4.00
2018-01-16T23:05:23.811Z,3.90
2018-01-16T23:07:51.815Z,3.90
2018-01-16T23:10:20.568Z,3.90
2018-01-16T23:12:48.571Z,3.80
2018-01-16T23:15:16.572Z,3.70
2018-01-16T23:17:45.327Z,3.70
2018-01-16T23:20:13.339Z,3.70
2018-01-16T23:22:41.344Z,3.70
2018-01-16T23:25:10.095Z,3.70
2018-01-16T23:27:38.100Z,3.70
2018-01-16T23:30:06.104Z,3.70
2018-01-16T23:32:34.857Z,3.70
2018-01-16T23:35:02.872Z,3.60
2018-01-16T23:37:30.875Z,3.70
2018-01-16T23:39:59.636Z,3.60
2018-01-16T23:42:27.648Z,3.60
2018-01-16T23:44:55.647Z,3.60
2018-01-16T23:47:24.408Z,3.50
2018-01-16T23:49:52.418Z,3.50
2018-01-16T23:52:20.436Z,3.50
2018-01-16T23:54:48.451Z,3.50
2018-01-16T23:57:16.469Z,3.50
2018-01-16T23:59:45.236Z,3.40
